Time;durP1;ratioP1;P1;durP2;ratioP2;P2;SDS_P1;SDS_P2;PMS_P1;PMS_P2;Temp;Humidity;BMP_temperature;BMP_pressure;BME280_temperature;BME280_humidity;BME280_pressure;Samples;Min_cycle;Max_cycle;Signal;HPM_P1;HPM_P2
2021/08/17 00:01:19;;;;;;;;;;;;;;;;;;5064147;28;19927;-58
2021/08/17 00:03:45;;;;;;;;;;;;;;;;;;5062998;28;19923;-58
2021/08/17 00:06:10;;;;;;;;;;;;;;;;;;5065316;28;20306;-59
2021/08/17 00:08:36;;;;;;;;;;;;;;;;;;5065920;28;19915;-59
2021/08/17 00:11:02;;;;;;;;;;;;;;;;;;5065132;28;19912;-58
2021/08/17 00:13:28;;;;;;;;;;;;;;;;;;5063707;28;19959;-58
2021/08/17 00:15:54;;;;;;;;;;;;;;;;;;5065188;28;20054;-58
2021/08/17 00:18:20;;;;;;;;;;;;;;;;;;5065027;28;19991;-58
2021/08/17 00:20:47;;;;;;;;;;;;;;;;;;5064794;28;19929;-59
2021/08/17 00:23:13;;;;;;;;;;;;;;;;;;5062672;28;20283;-58
2021/08/17 00:25:42;;;;;;;;;;;;;;;;;;5064488;28;19912;-58
2021/08/17 00:28:10;;;;;;;;;;;;;;;;;;5065772;28;19920;-57
2021/08/17 00:30:36;;;;;;;;;;;;;;;;;;5064349;28;20447;-58
2021/08/17 00:33:02;;;;;;;;;;;;;;;;;;5064753;28;19921;-58
2021/08/17 00:35:28;;;;;;;;;;;;;;;;;;5064321;28;19916;-58
2021/08/17 00:37:54;;;;;;;;;;;;;;;;;;5064915;28;19954;-58
2021/08/17 00:40:20;;;;;;;;;;;;;;;;;;5064598;28;19912;-58
2021/08/17 00:42:46;;;;;;;;;;;;;;;;;;5064676;28;19977;-58
2021/08/17 00:45:12;;;;;;;;;;;;;;;;;;5063593;28;19912;-58
2021/08/17 00:47:38;;;;;;;;;;;;;;;;;;5064187;28;19917;-58
2021/08/17 00:50:05;;;;;;;;;;;;;;;;;;5063695;28;19954;-58
2021/08/17 00:52:31;;;;;;;;;;;;;;;;;;5064295;28;20333;-58
2021/08/17 00:54:57;;;;;;;;;;;;;;;;;;5063922;28;19913;-58
2021/08/17 00:57:23;;;;;;;;;;;;;;;;;;5064831;28;19916;-58
2021/08/17 00:59:49;;;;;;;;;;;;;;;;;;5066344;28;19912;-58
2021/08/17 01:02:15;;;;;;;;;;;;;;;;;;5066343;28;19920;-58
2021/08/17 01:04:41;;;;;;;;;;;;;;;;;;5067053;28;19915;-58
2021/08/17 01:07:06;;;;;;;;;;;;;;;;;;5067358;28;19912;-58
2021/08/17 01:09:32;;;;;;;;;;;;;;;;;;5066356;28;20654;-58
2021/08/17 01:11:58;;;;;;;;;;;;;;;;;;5066631;28;19951;-58
2021/08/17 01:14:24;;;;;;;;;;;;;;;;;;5063625;28;19908;-58
2021/08/17 01:16:50;;;;;;;;;;;;;;;;;;5066198;28;19916;-58
2021/08/17 01:19:19;;;;;;;;;;;;;;;;;;5066479;28;20054;-58
2021/08/17 01:21:45;;;;;;;;;;;;;;;;;;5066146;28;19947;-58
2021/08/17 01:24:11;;;;;;;;;;;;;;;;;;5065373;28;19944;-58
2021/08/17 01:26:37;;;;;;;;;;;;;;;;;;5066876;28;19916;-58
2021/08/17 01:29:03;;;;;;;;;;;;;;;;;;5066520;28;19939;-57
2021/08/17 01:31:29;;;;;;;;;;;;;;;;;;5066002;28;19977;-57
2021/08/17 01:33:55;;;;;;;;;;;;;;;;;;5064771;28;19916;-58
2021/08/17 01:36:21;;;;;;;;;;;;;;;;;;5065900;28;19953;-58
2021/08/17 01:38:47;;;;;;;;;;;;;;;;;;5066223;28;19913;-58
2021/08/17 01:41:13;;;;;;;;;;;;;;;;;;5066124;28;20023;-58
2021/08/17 01:43:39;;;;;;;;;;;;;;;;;;5066428;28;19919;-58
2021/08/17 01:46:04;;;;;;;;;;;;;;;;;;5070238;28;19917;-59
2021/08/17 01:48:30;;;;;;;;;;;;;;;;;;5070009;28;19912;-58
2021/08/17 01:50:56;;;;;;;;;;;;;;;;;;5069959;28;19908;-58
2021/08/17 01:53:22;;;;;;;;;;;;;;;;;;5068565;28;19944;-58
2021/08/17 01:55:48;;;;;;;;;;;;;;;;;;5069434;28;19916;-58
2021/08/17 01:58:14;;;;;;;;;;;;;;;;;;5068995;28;19944;-58
2021/08/17 02:00:40;;;;;;;;;;;;;;;;;;5069896;28;19920;-58
2021/08/17 02:03:06;;;;;;;;;;;;;;;;;;5069942;28;19908;-58
2021/08/17 02:05:32;;;;;;;;;;;;;;;;;;5068419;28;19930;-57
2021/08/17 02:07:58;;;;;;;;;;;;;;;;;;5069751;28;19952;-57
2021/08/17 02:10:24;;;;;;;;;;;;;;;;;;5069897;28;20403;-57
2021/08/17 02:12:50;;;;;;;;;;;;;;;;;;5069398;28;19966;-58
2021/08/17 02:15:16;;;;;;;;;;;;;;;;;;5067809;28;20505;-58
2021/08/17 02:17:42;;;;;;;;;;;;;;;;;;5069322;28;19938;-58
2021/08/17 02:20:08;;;;;;;;;;;;;;;;;;5070175;28;19923;-58
2021/08/17 02:22:34;;;;;;;;;;;;;;;;;;5069421;28;19912;-58
2021/08/17 02:25:00;;;;;;;;;;;;;;;;;;5068758;28;19912;-58
2021/08/17 02:27:26;;;;;;;;;;;;;;;;;;5069511;28;19954;-58
2021/08/17 02:29:52;;;;;;;;;;;;;;;;;;5069128;28;19916;-58
2021/08/17 02:32:18;;;;;;;;;;;;;;;;;;5069520;28;20691;-58
2021/08/17 02:34:44;;;;;;;;;;;;;;;;;;5069026;28;19995;-58
2021/08/17 02:37:10;;;;;;;;;;;;;;;;;;5068897;28;19943;-57
2021/08/17 02:39:35;;;;;;;;;;;;;;;;;;5068878;28;19916;-57
2021/08/17 02:42:01;;;;;;;;;;;;;;;;;;5069028;28;19921;-57
2021/08/17 02:44:27;;;;;;;;;;;;;;;;;;5068793;28;19914;-58
2021/08/17 02:46:53;;;;;;;;;;;;;;;;;;5068100;28;19912;-58
2021/08/17 02:49:19;;;;;;;;;;;;;;;;;;5069100;28;19913;-58
2021/08/17 02:51:45;;;;;;;;;;;;;;;;;;5068010;28;20402;-58
2021/08/17 02:54:11;;;;;;;;;;;;;;;;;;5067620;28;19916;-58
2021/08/17 02:56:37;;;;;;;;;;;;;;;;;;5067540;28;19916;-58
2021/08/17 02:59:03;;;;;;;;;;;;;;;;;;5067978;28;19917;-58
2021/08/17 03:01:29;;;;;;;;;;;;;;;;;;5068233;28;19923;-58
2021/08/17 03:03:55;;;;;;;;;;;;;;;;;;5068028;28;19924;-58
2021/08/17 03:06:21;;;;;;;;;;;;;;;;;;5068276;28;19920;-58
2021/08/17 03:08:47;;;;;;;;;;;;;;;;;;5067246;28;19917;-57
2021/08/17 03:11:13;;;;;;;;;;;;;;;;;;5067304;28;20098;-58
2021/08/17 03:13:39;;;;;;;;;;;;;;;;;;5068132;28;19912;-58
2021/08/17 03:16:05;;;;;;;;;;;;;;;;;;5068287;28;19923;-58
2021/08/17 03:18:31;;;;;;;;;;;;;;;;;;5068175;28;19909;-58
2021/08/17 03:20:58;;;;;;;;;;;;;;;;;;5067254;28;19974;-58
2021/08/17 03:23:26;;;;;;;;;;;;;;;;;;5068391;28;19931;-58
2021/08/17 03:25:52;;;;;;;;;;;;;;;;;;5068664;28;19909;-57
2021/08/17 03:28:18;;;;;;;;;;;;;;;;;;5067962;28;19912;-58
2021/08/17 03:30:44;;;;;;;;;;;;;;;;;;5066816;28;20016;-58
2021/08/17 03:33:10;;;;;;;;;;;;;;;;;;5067940;28;19913;-58
2021/08/17 03:35:36;;;;;;;;;;;;;;;;;;5067942;28;19912;-58
2021/08/17 03:38:02;;;;;;;;;;;;;;;;;;5067103;28;19919;-58
2021/08/17 03:40:28;;;;;;;;;;;;;;;;;;5066885;28;19940;-58
2021/08/17 03:42:54;;;;;;;;;;;;;;;;;;5068336;28;19919;-58
2021/08/17 03:45:20;;;;;;;;;;;;;;;;;;5068135;28;19935;-58
2021/08/17 03:47:46;;;;;;;;;;;;;;;;;;5066182;28;19999;-58
2021/08/17 03:50:12;;;;;;;;;;;;;;;;;;5066670;28;20470;-57
2021/08/17 03:52:38;;;;;;;;;;;;;;;;;;5067455;28;19909;-58
2021/08/17 03:55:03;;;;;;;;;;;;;;;;;;5067515;28;19935;-58
2021/08/17 03:57:30;;;;;;;;;;;;;;;;;;5067438;28;19964;-58
2021/08/17 03:59:55;;;;;;;;;;;;;;;;;;5066476;28;19920;-58
2021/08/17 04:02:21;;;;;;;;;;;;;;;;;;5067149;28;19934;-58
2021/08/17 04:04:49;;;;;;;;;;;;;;;;;;5065345;28;20732;-57
2021/08/17 04:07:14;;;;;;;;;;;;;;;;;;5066665;28;19912;-58
2021/08/17 04:09:40;;;;;;;;;;;;;;;;;;5066854;28;19913;-58
2021/08/17 04:12:06;;;;;;;;;;;;;;;;;;5066611;28;20003;-58
2021/08/17 04:14:32;;;;;;;;;;;;;;;;;;5066913;28;19911;-57
2021/08/17 04:16:58;;;;;;;;;;;;;;;;;;5066927;28;19999;-58
2021/08/17 04:19:24;;;;;;;;;;;;;;;;;;5067125;28;19912;-57
2021/08/17 04:21:50;;;;;;;;;;;;;;;;;;5066612;28;19920;-57
2021/08/17 04:24:16;;;;;;;;;;;;;;;;;;5066932;28;19909;-58
2021/08/17 04:26:42;;;;;;;;;;;;;;;;;;5066058;28;19977;-58
2021/08/17 04:29:08;;;;;;;;;;;;;;;;;;5066784;28;19994;-57
2021/08/17 04:31:34;;;;;;;;;;;;;;;;;;5065829;28;19920;-57
2021/08/17 04:34:00;;;;;;;;;;;;;;;;;;5066875;28;19908;-57
2021/08/17 04:36:26;;;;;;;;;;;;;;;;;;5066935;28;19935;-58
2021/08/17 04:38:52;;;;;;;;;;;;;;;;;;5066549;28;19916;-58
2021/08/17 04:41:18;;;;;;;;;;;;;;;;;;5064867;28;20019;-58
2021/08/17 04:43:45;;;;;;;;;;;;;;;;;;5066170;28;20527;-58
2021/08/17 04:46:11;;;;;;;;;;;;;;;;;;5066975;28;19913;-58
2021/08/17 04:48:37;;;;;;;;;;;;;;;;;;5066440;28;19970;-57
2021/08/17 04:51:03;;;;;;;;;;;;;;;;;;5064655;28;19919;-58
2021/08/17 04:53:29;;;;;;;;;;;;;;;;;;5066898;28;19909;-58
2021/08/17 04:55:55;;;;;;;;;;;;;;;;;;5065709;28;20001;-58
2021/08/17 04:58:21;;;;;;;;;;;;;;;;;;5066480;28;19965;-57
2021/08/17 05:00:47;;;;;;;;;;;;;;;;;;5066262;28;19920;-58
2021/08/17 05:03:13;;;;;;;;;;;;;;;;;;5065678;28;19917;-58
2021/08/17 05:05:39;;;;;;;;;;;;;;;;;;5066133;28;19915;-58
2021/08/17 05:08:05;;;;;;;;;;;;;;;;;;5066958;28;19947;-58
2021/08/17 05:10:31;;;;;;;;;;;;;;;;;;5064937;28;20007;-57
2021/08/17 05:13:00;;;;;;;;;;;;;;;;;;5064944;28;19912;-57
2021/08/17 05:15:26;;;;;;;;;;;;;;;;;;5066374;28;19912;-57
2021/08/17 05:17:52;;;;;;;;;;;;;;;;;;5068527;28;19912;-58
2021/08/17 05:20:18;;;;;;;;;;;;;;;;;;5070490;28;19915;-58
2021/08/17 05:22:44;;;;;;;;;;;;;;;;;;5068281;28;20043;-58
2021/08/17 05:25:09;;;;;;;;;;;;;;;;;;5070366;28;19909;-57
2021/08/17 05:27:35;;;;;;;;;;;;;;;;;;5070836;28;19915;-58
2021/08/17 05:30:01;;;;;;;;;;;;;;;;;;5070857;28;19912;-57
2021/08/17 05:32:27;;;;;;;;;;;;;;;;;;5069414;28;20700;-58
2021/08/17 05:34:53;;;;;;;;;;;;;;;;;;5070219;28;20019;-57
2021/08/17 05:37:19;;;;;;;;;;;;;;;;;;5070395;28;19908;-58
2021/08/17 05:39:45;;;;;;;;;;;;;;;;;;5069860;28;19918;-58
2021/08/17 05:42:11;;;;;;;;;;;;;;;;;;5068448;28;19935;-58
2021/08/17 05:44:37;;;;;;;;;;;;;;;;;;5069297;28;19909;-58
2021/08/17 05:47:03;;;;;;;;;;;;;;;;;;5070639;28;19916;-58
2021/08/17 05:49:29;;;;;;;;;;;;;;;;;;5070028;28;19912;-58
2021/08/17 05:51:55;;;;;;;;;;;;;;;;;;5069777;28;19915;-59
2021/08/17 05:54:23;;;;;;;;;;;;;;;;;;5067342;28;19923;-58
2021/08/17 05:56:49;;;;;;;;;;;;;;;;;;5069218;28;19916;-58
2021/08/17 05:59:15;;;;;;;;;;;;;;;;;;5069456;28;19954;-58
2021/08/17 06:01:41;;;;;;;;;;;;;;;;;;5068466;28;19965;-58
2021/08/17 06:04:07;;;;;;;;;;;;;;;;;;5065879;28;19912;-58
2021/08/17 06:06:32;;;;;;;;;;;;;;;;;;5070168;28;19915;-58
2021/08/17 06:08:58;;;;;;;;;;;;;;;;;;5069135;28;19923;-58
2021/08/17 06:11:24;;;;;;;;;;;;;;;;;;5069486;28;19916;-58
2021/08/17 06:13:51;;;;;;;;;;;;;;;;;;5067667;28;19952;-58
2021/08/17 06:16:17;;;;;;;;;;;;;;;;;;5069237;28;19912;-58
2021/08/17 06:18:43;;;;;;;;;;;;;;;;;;5069295;28;20058;-58
2021/08/17 06:21:09;;;;;;;;;;;;;;;;;;5069387;28;19923;-58
2021/08/17 06:23:35;;;;;;;;;;;;;;;;;;5069126;28;19927;-58
2021/08/17 06:26:01;;;;;;;;;;;;;;;;;;5068310;28;19916;-58
2021/08/17 06:28:27;;;;;;;;;;;;;;;;;;5064636;28;20022;-57
2021/08/17 06:30:53;;;;;;;;;;;;;;;;;;5068788;28;19912;-57
2021/08/17 06:33:19;;;;;;;;;;;;;;;;;;5069103;28;19999;-58
2021/08/17 06:35:46;;;;;;;;;;;;;;;;;;5068940;28;19909;-58
2021/08/17 06:38:12;;;;;;;;;;;;;;;;;;5068247;28;20432;-58
2021/08/17 06:40:38;;;;;;;;;;;;;;;;;;5068050;28;19966;-58
2021/08/17 06:43:04;;;;;;;;;;;;;;;;;;5068450;28;19980;-58
2021/08/17 06:45:30;;;;;;;;;;;;;;;;;;5066468;28;19917;-58
2021/08/17 06:47:56;;;;;;;;;;;;;;;;;;5063402;28;20476;-58
2021/08/17 06:50:22;;;;;;;;;;;;;;;;;;5065061;28;19916;-58
2021/08/17 06:52:48;;;;;;;;;;;;;;;;;;5062134;28;19987;-58
2021/08/17 06:55:14;;;;;;;;;;;;;;;;;;5066150;28;19923;-58
2021/08/17 06:57:39;;;;;;;;;;;;;;;;;;5064651;28;19916;-58
2021/08/17 07:00:05;;;;;;;;;;;;;;;;;;5065732;28;20022;-58
2021/08/17 07:02:31;;;;;;;;;;;;;;;;;;5063938;28;19950;-58
2021/08/17 07:04:57;;;;;;;;;;;;;;;;;;5065934;28;19913;-57
2021/08/17 07:07:23;;;;;;;;;;;;;;;;;;5065169;28;19917;-58
2021/08/17 07:09:49;;;;;;;;;;;;;;;;;;5068261;28;19912;-58
2021/08/17 07:12:15;;;;;;;;;;;;;;;;;;5066098;28;19909;-57
2021/08/17 07:14:41;;;;;;;;;;;;;;;;;;5064752;28;19921;-57
2021/08/17 07:17:07;;;;;;;;;;;;;;;;;;5065466;28;19965;-57
2021/08/17 07:19:33;;;;;;;;;;;;;;;;;;5067512;28;20007;-57
2021/08/17 07:21:59;;;;;;;;;;;;;;;;;;5078867;28;19920;-57
2021/08/17 07:24:25;;;;;;;;;;;;;;;;;;5067534;28;19921;-57
2021/08/17 07:26:51;;;;;;;;;;;;;;;;;;5066747;28;19916;-58
2021/08/17 07:29:17;;;;;;;;;;;;;;;;;;5067836;28;19919;-57
2021/08/17 07:31:43;;;;;;;;;;;;;;;;;;5066466;28;19916;-57
2021/08/17 07:34:09;;;;;;;;;;;;;;;;;;5061635;28;19996;-57
2021/08/17 07:36:36;;;;;;;;;;;;;;;;;;5046710;28;20459;-57
2021/08/17 07:39:02;;;;;;;;;;;;;;;;;;5046953;28;20004;-57
2021/08/17 07:41:28;;;;;;;;;;;;;;;;;;5050194;28;20019;-57
2021/08/17 07:43:54;;;;;;;;;;;;;;;;;;5065030;28;19951;-58
2021/08/17 07:46:20;;;;;;;;;;;;;;;;;;5065957;28;19912;-58
2021/08/17 07:48:46;;;;;;;;;;;;;;;;;;5068232;28;19919;-58
2021/08/17 07:51:11;;;;;;;;;;;;;;;;;;5066514;28;19917;-58
2021/08/17 07:53:37;;;;;;;;;;;;;;;;;;5067513;28;19908;-58
2021/08/17 07:56:03;;;;;;;;;;;;;;;;;;5067105;28;19923;-58
2021/08/17 07:58:29;;;;;;;;;;;;;;;;;;5066488;28;20418;-58
2021/08/17 08:00:55;;;;;;;;;;;;;;;;;;5065461;28;19916;-58
2021/08/17 08:03:21;;;;;;;;;;;;;;;;;;5066944;28;20397;-58
2021/08/17 08:05:47;;;;;;;;;;;;;;;;;;5065984;28;19920;-58
2021/08/17 08:08:13;;;;;;;;;;;;;;;;;;5065114;28;19916;-58
2021/08/17 08:10:39;;;;;;;;;;;;;;;;;;5066808;28;20125;-58
2021/08/17 08:13:05;;;;;;;;;;;;;;;;;;5063556;28;19920;-60
2021/08/17 08:15:31;;;;;;;;;;;;;;;;;;5065848;28;19936;-58
2021/08/17 08:17:57;;;;;;;;;;;;;;;;;;5066331;28;19913;-58
2021/08/17 08:20:23;;;;;;;;;;;;;;;;;;5065494;28;19936;-58
2021/08/17 08:22:49;;;;;;;;;;;;;;;;;;5066806;28;19923;-59
2021/08/17 08:25:15;;;;;;;;;;;;;;;;;;5066053;28;19916;-58
2021/08/17 08:27:41;;;;;;;;;;;;;;;;;;5066601;28;19923;-58
2021/08/17 08:30:07;;;;;;;;;;;;;;;;;;5065272;28;19967;-58
2021/08/17 08:32:34;;;;;;;;;;;;;;;;;;5066685;28;19919;-60
2021/08/17 08:35:00;;;;;;;;;;;;;;;;;;5066701;28;20382;-59
2021/08/17 08:37:26;;;;;;;;;;;;;;;;;;5065971;28;19917;-59
2021/08/17 08:39:54;;;;;;;;;;;;;;;;;;5064393;28;19919;-60
2021/08/17 08:42:20;;;;;;;;;;;;;;;;;;5066818;28;19970;-60
2021/08/17 08:44:46;;;;;;;;;;;;;;;;;;5065952;28;19912;-61
2021/08/17 08:47:11;;;;;;;;;;;;;;;;;;5064390;28;19920;-60
2021/08/17 08:49:37;;;;;;;;;;;;;;;;;;5065632;28;19948;-60
2021/08/17 08:52:03;;;;;;;;;;;;;;;;;;5064396;28;19923;-60
2021/08/17 08:54:29;;;;;;;;;;;;;;;;;;5065908;28;19916;-60
2021/08/17 08:56:55;;;;;;;;;;;;;;;;;;5065169;28;19913;-60
2021/08/17 08:59:21;;;;;;;;;;;;;;;;;;5066000;28;19927;-60
2021/08/17 09:01:47;;;;;;;;;;;;;;;;;;5066557;28;19925;-59
2021/08/17 09:04:15;;;;;;;;;;;;;;;;;;5064716;28;20145;-60
2021/08/17 09:06:42;;;;;;;;;;;;;;;;;;5065061;28;20245;-61
2021/08/17 09:09:08;;;;;;;;;;;;;;;;;;5064819;28;19920;-61
2021/08/17 09:11:34;;;;;;;;;;;;;;;;;;5063273;28;19916;-60
2021/08/17 09:14:00;;;;;;;;;;;;;;;;;;5066432;28;19916;-60
2021/08/17 09:16:26;;;;;;;;;;;;;;;;;;5066477;28;19908;-61
2021/08/17 09:18:54;;;;;;;;;;;;;;;;;;5066255;28;19951;-61
2021/08/17 09:21:20;;;;;;;;;;;;;;;;;;5066292;28;19960;-61
2021/08/17 09:23:46;;;;;;;;;;;;;;;;;;5066660;28;19967;-61
2021/08/17 09:26:12;;;;;;;;;;;;;;;;;;5066056;28;19909;-61
2021/08/17 09:28:38;;;;;;;;;;;;;;;;;;5064869;28;19912;-60
2021/08/17 09:31:04;;;;;;;;;;;;;;;;;;5065338;28;19923;-60
2021/08/17 09:33:30;;;;;;;;;;;;;;;;;;5065947;28;19909;-61
2021/08/17 09:35:57;;;;;;;;;;;;;;;;;;5065775;28;20539;-60
2021/08/17 09:38:22;;;;;;;;;;;;;;;;;;5064261;28;19912;-61
2021/08/17 09:40:48;;;;;;;;;;;;;;;;;;5066039;28;19916;-60
2021/08/17 09:43:15;;;;;;;;;;;;;;;;;;5060778;28;20011;-61
2021/08/17 09:45:42;;;;;;;;;;;;;;;;;;5053179;28;19974;-61
2021/08/17 09:48:08;;;;;;;;;;;;;;;;;;5063027;28;19958;-62
2021/08/17 09:50:37;;;;;;;;;;;;;;;;;;5064259;28;19916;-61
2021/08/17 09:53:42;;;;;;;;;;;;;;;;;;5069805;28;19920;-61
2021/08/17 09:56:08;;;;;;;;;;;;;;;;;;5081426;28;19919;-61
2021/08/17 09:58:35;;;;;;;;;;;;;;;;;;5088001;28;20416;-61
2021/08/17 10:01:01;;;;;;;;;;;;;;;;;;5085721;28;19995;-61
2021/08/17 10:03:27;;;;;;;;;;;;;;;;;;5082536;28;19914;-61
2021/08/17 10:05:53;;;;;;;;;;;;;;;;;;5082271;28;20302;-61
2021/08/17 10:08:19;;;;;;;;;;;;;;;;;;5082835;28;20434;-61
2021/08/17 10:10:45;;;;;;;;;;;;;;;;;;5081150;28;19916;-61
2021/08/17 10:13:12;;;;;;;;;;;;;;;;;;5082231;28;19965;-61
2021/08/17 10:15:39;;;;;;;;;;;;;;;;;;5083083;28;19919;-61
2021/08/17 10:18:06;;;;;;;;;;;;;;;;;;5082967;28;19920;-61
2021/08/17 10:20:32;;;;;;;;;;;;;;;;;;5082785;28;19912;-62
2021/08/17 10:22:57;;;;;;;;;;;;;;;;;;5082729;28;20268;-61
2021/08/17 10:25:23;;;;;;;;;;;;;;;;;;5082929;28;19916;-61
2021/08/17 10:27:49;;;;;;;;;;;;;;;;;;5083359;28;19913;-60
2021/08/17 10:30:16;;;;;;;;;;;;;;;;;;5080329;28;19999;-59
2021/08/17 10:32:42;;;;;;;;;;;;;;;;;;5082403;28;19916;-61
2021/08/17 10:35:08;;;;;;;;;;;;;;;;;;5082550;28;19912;-62
2021/08/17 10:37:35;;;;;;;;;;;;;;;;;;5082585;28;19966;-62
2021/08/17 10:40:01;;;;;;;;;;;;;;;;;;5082818;28;19920;-62
2021/08/17 10:42:27;;;;;;;;;;;;;;;;;;5082712;28;20342;-61
2021/08/17 10:44:53;;;;;;;;;;;;;;;;;;5076468;28;19962;-62
2021/08/17 10:47:19;;;;;;;;;;;;;;;;;;5083030;28;19915;-62
2021/08/17 10:49:45;;;;;;;;;;;;;;;;;;5083439;28;19919;-60
2021/08/17 10:52:11;;;;;;;;;;;;;;;;;;5064003;28;20201;-60
2021/08/17 10:54:37;;;;;;;;;;;;;;;;;;5062032;28;20605;-60
2021/08/17 10:57:03;;;;;;;;;;;;;;;;;;5062576;28;19909;-60
2021/08/17 10:59:29;;;;;;;;;;;;;;;;;;5094840;28;19919;-60
2021/08/17 11:01:55;;;;;;;;;;;;;;;;;;5078980;28;19912;-60
2021/08/17 11:04:21;;;;;;;;;;;;;;;;;;5073358;28;19916;-60
2021/08/17 11:06:47;;;;;;;;;;;;;;;;;;5069361;28;19913;-60
2021/08/17 11:09:13;;;;;;;;;;;;;;;;;;5067895;28;19916;-61
2021/08/17 11:11:39;;;;;;;;;;;;;;;;;;5068735;28;19912;-61
2021/08/17 11:14:05;;;;;;;;;;;;;;;;;;5067743;28;19920;-61
2021/08/17 11:16:31;;;;;;;;;;;;;;;;;;5050275;28;20448;-61
2021/08/17 11:18:57;;;;;;;;;;;;;;;;;;5059119;28;19912;-61
2021/08/17 11:21:23;;;;;;;;;;;;;;;;;;5046994;28;19917;-61
2021/08/17 11:23:49;;;;;;;;;;;;;;;;;;5053493;28;19999;-62
2021/08/17 11:26:15;;;;;;;;;;;;;;;;;;5065838;28;19917;-61
2021/08/17 11:28:41;;;;;;;;;;;;;;;;;;5066828;28;19912;-61
2021/08/17 11:31:07;;;;;;;;;;;;;;;;;;5066066;28;19966;-61
2021/08/17 11:33:33;;;;;;;;;;;;;;;;;;5066041;28;20276;-60
2021/08/17 11:35:59;;;;;;;;;;;;;;;;;;5061525;28;19912;-61
2021/08/17 11:38:25;;;;;;;;;;;;;;;;;;5064047;28;19913;-61
2021/08/17 11:40:51;;;;;;;;;;;;;;;;;;5066943;28;20041;-61
2021/08/17 11:43:17;;;;;;;;;;;;;;;;;;5069965;28;19965;-61
2021/08/17 11:45:43;;;;;;;;;;;;;;;;;;5065510;28;19913;-61
2021/08/17 11:48:10;;;;;;;;;;;;;;;;;;5065355;28;19924;-62
2021/08/17 11:50:35;;;;;;;;;;;;;;;;;;5065575;28;20019;-62
2021/08/17 11:53:02;;;;;;;;;;;;;;;;;;5064343;28;20367;-62
2021/08/17 11:55:28;;;;;;;;;;;;;;;;;;5064219;28;19965;-62
2021/08/17 11:57:55;;;;;;;;;;;;;;;;;;5065858;28;20015;-62
2021/08/17 12:00:21;;;;;;;;;;;;;;;;;;5065766;28;19920;-62
2021/08/17 12:02:47;;;;;;;;;;;;;;;;;;5065255;28;20414;-62
2021/08/17 12:05:13;;;;;;;;;;;;;;;;;;5064995;28;19912;-62
2021/08/17 12:07:40;;;;;;;;;;;;;;;;;;5058917;28;19960;-62
2021/08/17 12:10:05;;;;;;;;;;;;;;;;;;5064356;28;19916;-62
2021/08/17 12:12:32;;;;;;;;;;;;;;;;;;5064718;28;19942;-63
2021/08/17 12:14:58;;;;;;;;;;;;;;;;;;5063377;28;20151;-63
2021/08/17 12:17:24;;;;;;;;;;;;;;;;;;5063922;28;19920;-63
2021/08/17 12:19:50;;;;;;;;;;;;;;;;;;5063260;28;19942;-63
2021/08/17 12:22:17;;;;;;;;;;;;;;;;;;5065735;28;20383;-63
2021/08/17 12:24:43;;;;;;;;;;;;;;;;;;5063908;28;20007;-63
2021/08/17 12:27:09;;;;;;;;;;;;;;;;;;5060407;28;20003;-60
2021/08/17 12:29:35;;;;;;;;;;;;;;;;;;5061367;28;19922;-62
2021/08/17 12:32:01;;;;;;;;;;;;;;;;;;5063750;28;20214;-63
2021/08/17 12:34:27;;;;;;;;;;;;;;;;;;5064636;28;20361;-62
2021/08/17 12:36:53;;;;;;;;;;;;;;;;;;5063190;28;19920;-61
2021/08/17 12:39:20;;;;;;;;;;;;;;;;;;5065201;28;19924;-59
2021/08/17 12:41:46;;;;;;;;;;;;;;;;;;5062374;28;19922;-63
2021/08/17 12:44:13;;;;;;;;;;;;;;;;;;5064288;28;19990;-62
2021/08/17 12:46:39;;;;;;;;;;;;;;;;;;5064095;28;20299;-63
2021/08/17 12:49:04;;;;;;;;;;;;;;;;;;5063487;28;19946;-63
2021/08/17 12:51:30;;;;;;;;;;;;;;;;;;5063564;28;19920;-64
2021/08/17 12:53:56;;;;;;;;;;;;;;;;;;5062411;28;20377;-64
2021/08/17 12:56:23;;;;;;;;;;;;;;;;;;5065112;28;19908;-62
2021/08/17 12:58:49;;;;;;;;;;;;;;;;;;5065403;28;19912;-63
2021/08/17 13:01:15;;;;;;;;;;;;;;;;;;5063103;28;19916;-63
2021/08/17 13:03:41;;;;;;;;;;;;;;;;;;5064151;28;20358;-63
2021/08/17 13:06:07;;;;;;;;;;;;;;;;;;5068547;28;19916;-64
2021/08/17 13:08:33;;;;;;;;;;;;;;;;;;5063840;28;19912;-62
2021/08/17 13:11:01;;;;;;;;;;;;;;;;;;5063442;28;19910;-61
2021/08/17 13:13:27;;;;;;;;;;;;;;;;;;5063936;28;20018;-62
2021/08/17 13:15:53;;;;;;;;;;;;;;;;;;5064122;28;20450;-64
2021/08/17 13:18:19;;;;;;;;;;;;;;;;;;5060373;28;20372;-63
2021/08/17 13:20:46;;;;;;;;;;;;;;;;;;5052325;28;19924;-64
2021/08/17 13:23:12;;;;;;;;;;;;;;;;;;5063424;28;20493;-63
2021/08/17 13:25:39;;;;;;;;;;;;;;;;;;5063448;28;19913;-62
2021/08/17 13:28:05;;;;;;;;;;;;;;;;;;5064351;28;19916;-62
2021/08/17 13:30:32;;;;;;;;;;;;;;;;;;5064312;28;19993;-61
2021/08/17 13:32:59;;;;;;;;;;;;;;;;;;5063577;28;19916;-61
2021/08/17 13:35:25;;;;;;;;;;;;;;;;;;5064252;28;20438;-62
2021/08/17 13:37:51;;;;;;;;;;;;;;;;;;5064417;28;19924;-61
2021/08/17 13:40:17;;;;;;;;;;;;;;;;;;5064429;28;19913;-62
2021/08/17 13:42:44;;;;;;;;;;;;;;;;;;5063632;28;19923;-62
2021/08/17 13:45:11;;;;;;;;;;;;;;;;;;5054452;28;19954;-62
2021/08/17 13:47:36;;;;;;;;;;;;;;;;;;5065569;28;19916;-61
2021/08/17 13:50:02;;;;;;;;;;;;;;;;;;5055105;28;19920;-61
2021/08/17 13:52:28;;;;;;;;;;;;;;;;;;5065708;28;20015;-61
2021/08/17 13:54:55;;;;;;;;;;;;;;;;;;5065249;28;19913;-61
2021/08/17 13:57:21;;;;;;;;;;;;;;;;;;5064906;28;19917;-62
2021/08/17 13:59:47;;;;;;;;;;;;;;;;;;5065971;28;19922;-61
2021/08/17 14:02:13;;;;;;;;;;;;;;;;;;5066114;28;19916;-61
2021/08/17 14:04:40;;;;;;;;;;;;;;;;;;5063505;28;19912;-62
2021/08/17 14:07:07;;;;;;;;;;;;;;;;;;5065959;28;19912;-60
2021/08/17 14:09:33;;;;;;;;;;;;;;;;;;5065523;28;20284;-62
2021/08/17 14:11:59;;;;;;;;;;;;;;;;;;5065440;28;19974;-61
2021/08/17 14:14:25;;;;;;;;;;;;;;;;;;5063339;28;19917;-62
2021/08/17 14:16:51;;;;;;;;;;;;;;;;;;5066462;28;19913;-62
2021/08/17 14:19:18;;;;;;;;;;;;;;;;;;5066613;28;19931;-62
2021/08/17 14:21:44;;;;;;;;;;;;;;;;;;5064946;28;19923;-63
2021/08/17 14:24:10;;;;;;;;;;;;;;;;;;5060748;28;19912;-62
2021/08/17 14:26:36;;;;;;;;;;;;;;;;;;5062249;28;20012;-62
2021/08/17 14:29:02;;;;;;;;;;;;;;;;;;5063146;28;19938;-62
2021/08/17 14:31:28;;;;;;;;;;;;;;;;;;5065499;28;20411;-61
2021/08/17 14:33:54;;;;;;;;;;;;;;;;;;5065737;28;19934;-61
2021/08/17 14:36:20;;;;;;;;;;;;;;;;;;5065546;28;20372;-61
2021/08/17 14:38:46;;;;;;;;;;;;;;;;;;5064572;28;19916;-61
2021/08/17 14:41:12;;;;;;;;;;;;;;;;;;5069390;28;19917;-61
2021/08/17 14:43:38;;;;;;;;;;;;;;;;;;5068858;28;19908;-61
2021/08/17 14:46:04;;;;;;;;;;;;;;;;;;5069505;28;19913;-61
2021/08/17 14:48:30;;;;;;;;;;;;;;;;;;5067433;28;19913;-61
2021/08/17 14:50:56;;;;;;;;;;;;;;;;;;5066092;28;20085;-61
2021/08/17 14:53:22;;;;;;;;;;;;;;;;;;5067392;28;19920;-62
2021/08/17 14:55:47;;;;;;;;;;;;;;;;;;5069794;28;19913;-62
2021/08/17 14:58:13;;;;;;;;;;;;;;;;;;5069315;28;19912;-63
2021/08/17 15:00:39;;;;;;;;;;;;;;;;;;5067707;28;19908;-62
2021/08/17 15:03:05;;;;;;;;;;;;;;;;;;5067042;28;19999;-57
2021/08/17 15:05:31;;;;;;;;;;;;;;;;;;5066967;28;19916;-57
2021/08/17 15:07:57;;;;;;;;;;;;;;;;;;5067657;28;19939;-57
2021/08/17 15:10:23;;;;;;;;;;;;;;;;;;5068970;28;19908;-57
2021/08/17 15:12:49;;;;;;;;;;;;;;;;;;5068238;28;19917;-57
2021/08/17 15:15:15;;;;;;;;;;;;;;;;;;5067775;28;19969;-57
2021/08/17 15:17:41;;;;;;;;;;;;;;;;;;5068853;28;19948;-57
2021/08/17 15:20:07;;;;;;;;;;;;;;;;;;5067501;28;19916;-57
2021/08/17 15:22:33;;;;;;;;;;;;;;;;;;5068695;28;19913;-57
2021/08/17 15:24:59;;;;;;;;;;;;;;;;;;5069203;28;19908;-57
2021/08/17 15:27:26;;;;;;;;;;;;;;;;;;5063605;28;20012;-57
2021/08/17 15:29:52;;;;;;;;;;;;;;;;;;5049346;28;19970;-57
2021/08/17 15:32:19;;;;;;;;;;;;;;;;;;5062717;28;19921;-57
2021/08/17 15:34:45;;;;;;;;;;;;;;;;;;5068799;28;19912;-56
2021/08/17 15:37:11;;;;;;;;;;;;;;;;;;5066806;28;19923;-57
2021/08/17 15:39:37;;;;;;;;;;;;;;;;;;5066979;28;19962;-57
2021/08/17 15:42:03;;;;;;;;;;;;;;;;;;5068692;28;19940;-57
2021/08/17 15:44:29;;;;;;;;;;;;;;;;;;5068083;28;19912;-57
2021/08/17 15:46:55;;;;;;;;;;;;;;;;;;5068511;28;19920;-57
2021/08/17 15:49:21;;;;;;;;;;;;;;;;;;5067491;28;20027;-57
2021/08/17 15:51:47;;;;;;;;;;;;;;;;;;5068006;28;20376;-57
2021/08/17 15:54:13;;;;;;;;;;;;;;;;;;5068358;28;20028;-57
2021/08/17 15:56:39;;;;;;;;;;;;;;;;;;5068300;28;19908;-57
2021/08/17 15:59:05;;;;;;;;;;;;;;;;;;5064933;28;20012;-57
2021/08/17 16:01:30;;;;;;;;;;;;;;;;;;5050818;28;19948;-57
2021/08/17 16:03:56;;;;;;;;;;;;;;;;;;5064417;28;19951;-57
2021/08/17 16:06:23;;;;;;;;;;;;;;;;;;5050950;28;19916;-58
2021/08/17 16:08:49;;;;;;;;;;;;;;;;;;5052975;28;19915;-57
2021/08/17 16:11:16;;;;;;;;;;;;;;;;;;5064587;28;19912;-57
2021/08/17 16:13:42;;;;;;;;;;;;;;;;;;5046477;28;19929;-57
2021/08/17 16:16:08;;;;;;;;;;;;;;;;;;5069139;28;19912;-57
2021/08/17 16:18:34;;;;;;;;;;;;;;;;;;5064290;28;19942;-57
2021/08/17 16:21:06;;;;;;;;;;;;;;;;;;5067128;28;19909;-57
2021/08/17 16:23:32;;;;;;;;;;;;;;;;;;5066231;28;20383;-57
2021/08/17 16:25:58;;;;;;;;;;;;;;;;;;5067572;28;20261;-57
2021/08/17 16:28:24;;;;;;;;;;;;;;;;;;5066579;28;19919;-57
2021/08/17 16:30:51;;;;;;;;;;;;;;;;;;5067300;28;19909;-57
2021/08/17 16:33:18;;;;;;;;;;;;;;;;;;5067229;28;19928;-57
2021/08/17 16:35:44;;;;;;;;;;;;;;;;;;5066038;28;19955;-58
2021/08/17 16:38:11;;;;;;;;;;;;;;;;;;5067142;28;19966;-57